createdAt,value
2017-08-05T00:02:30.661Z,17.40
2017-08-05T00:07:33.872Z,17.20
2017-08-05T00:12:37.214Z,17.00
2017-08-05T00:17:41.213Z,16.40
2017-08-05T00:22:44.426Z,16.30
2017-08-05T00:27:47.613Z,16.30
2017-08-05T00:32:50.805Z,16.30
2017-08-05T00:37:54.018Z,16.50
2017-08-05T00:42:57.231Z,16.40
2017-08-05T00:48:00.417Z,16.00
2017-08-05T00:53:03.616Z,15.90
2017-08-05T00:58:06.821Z,15.80
2017-08-05T01:03:09.990Z,15.60
2017-08-05T01:08:13.166Z,15.90
2017-08-05T01:13:16.357Z,16.10
2017-08-05T01:18:19.540Z,15.90
2017-08-05T01:23:23.482Z,15.60
2017-08-05T01:28:26.676Z,15.60
2017-08-05T01:33:29.837Z,15.80
2017-08-05T01:38:33.012Z,16.20
2017-08-05T01:43:36.217Z,16.50
2017-08-05T01:48:39.417Z,16.20
2017-08-05T01:53:42.604Z,16.20
2017-08-05T01:58:45.772Z,16.20
2017-08-05T02:03:48.965Z,16.20
2017-08-05T02:08:52.195Z,16.40
2017-08-05T02:13:55.381Z,16.60
2017-08-05T02:18:58.581Z,16.60
2017-08-05T02:24:01.789Z,16.60
2017-08-05T02:29:04.966Z,16.80
2017-08-05T02:34:08.174Z,16.70
2017-08-05T02:39:11.365Z,16.50
2017-08-05T02:44:15.317Z,16.90
2017-08-05T02:49:18.509Z,16.90
2017-08-05T02:54:21.683Z,16.80
2017-08-05T02:59:25.735Z,17.00
2017-08-05T03:04:29.662Z,16.80
2017-08-05T03:09:32.873Z,16.70
2017-08-05T03:14:36.081Z,16.70
2017-08-05T03:19:39.277Z,16.80
2017-08-05T03:24:42.517Z,16.90
2017-08-05T03:29:45.692Z,16.60
2017-08-05T03:34:48.933Z,16.50
2017-08-05T03:39:52.199Z,16.50
2017-08-05T03:44:56.139Z,16.60
2017-08-05T03:49:59.308Z,16.60
2017-08-05T03:55:03.273Z,16.50
2017-08-05T04:00:06.450Z,16.50
2017-08-05T04:05:10.395Z,16.40
2017-08-05T04:10:13.621Z,16.40
2017-08-05T04:15:16.825Z,16.50
2017-08-05T04:20:20.038Z,16.60
2017-08-05T04:25:23.323Z,16.80
2017-08-05T04:30:27.249Z,17.00
2017-08-05T04:35:30.457Z,17.00
2017-08-05T04:40:33.658Z,17.10
2017-08-05T04:45:36.829Z,17.60
2017-08-05T04:50:40.006Z,17.80
2017-08-05T04:55:43.198Z,18.30
2017-08-05T05:00:46.385Z,18.80
2017-08-05T05:05:49.588Z,19.00
2017-08-05T05:10:53.521Z,19.20
2017-08-05T05:15:56.720Z,19.20
2017-08-05T05:20:59.921Z,19.50
2017-08-05T05:26:03.973Z,22.00
2017-08-05T05:31:07.180Z,22.00
2017-08-05T05:36:10.366Z,21.60
2017-08-05T05:41:13.572Z,20.70
2017-08-05T05:46:17.529Z,20.70
2017-08-05T05:51:20.697Z,20.70
2017-08-05T05:56:24.649Z,21.50
2017-08-05T06:01:27.834Z,21.50
2017-08-05T06:06:31.031Z,22.00
2017-08-05T06:11:35.066Z,21.10
2017-08-05T06:16:38.998Z,21.00
2017-08-05T06:21:42.196Z,21.00
2017-08-05T06:26:45.381Z,21.50
2017-08-05T06:31:48.553Z,21.30
2017-08-05T06:36:51.770Z,21.70
2017-08-05T06:41:54.969Z,22.40
2017-08-05T06:46:58.156Z,23.60
2017-08-05T06:52:01.343Z,23.40
2017-08-05T06:57:04.542Z,22.90
2017-08-05T07:02:08.506Z,25.50
2017-08-05T07:07:11.693Z,25.40
2017-08-05T07:12:14.878Z,24.40
2017-08-05T07:17:18.818Z,24.90
2017-08-05T07:22:22.027Z,24.90
2017-08-05T07:27:25.245Z,25.90
2017-08-05T07:32:28.451Z,25.50
2017-08-05T07:37:31.634Z,24.10
2017-08-05T07:42:35.619Z,24.60
2017-08-05T07:47:38.909Z,24.60
2017-08-05T07:52:42.122Z,25.50
2017-08-05T07:57:45.351Z,25.00
2017-08-05T08:02:48.574Z,24.20
2017-08-05T08:07:52.518Z,24.60
2017-08-05T08:12:55.732Z,24.60
2017-08-05T08:17:58.918Z,25.20
2017-08-05T08:23:02.886Z,24.60
2017-08-05T08:28:06.065Z,24.60
2017-08-05T08:33:09.247Z,24.10
2017-08-05T08:38:12.430Z,24.90
2017-08-05T08:43:15.618Z,24.60
2017-08-05T08:48:19.608Z,24.80
2017-08-05T08:53:23.565Z,25.70
2017-08-05T08:58:26.759Z,25.70
2017-08-05T09:03:29.965Z,26.00
2017-08-05T09:08:33.147Z,27.30
2017-08-05T09:13:37.082Z,27.10
2017-08-05T09:18:40.257Z,27.00
2017-08-05T09:23:44.229Z,26.70
2017-08-05T09:28:47.409Z,26.70
2017-08-05T09:33:50.601Z,26.20
2017-08-05T09:38:54.563Z,25.10
2017-08-05T09:43:57.739Z,25.10
2017-08-05T09:49:01.701Z,24.50
2017-08-05T09:54:04.945Z,24.40
2017-08-05T09:59:08.122Z,24.10
2017-08-05T10:04:11.385Z,24.10
2017-08-05T10:09:15.385Z,24.20
2017-08-05T10:14:18.579Z,24.20
2017-08-05T10:19:21.780Z,24.10
2017-08-05T10:24:24.957Z,23.50
2017-08-05T10:29:28.144Z,23.70
2017-08-05T10:34:31.333Z,24.30
2017-08-05T10:39:35.285Z,24.50
2017-08-05T10:44:38.493Z,24.50
2017-08-05T10:49:41.734Z,24.80
2017-08-05T10:54:44.951Z,24.50
2017-08-05T10:59:48.159Z,25.10
2017-08-05T11:04:51.379Z,24.90
2017-08-05T11:09:54.557Z,25.00
2017-08-05T11:14:57.798Z,25.00
2017-08-05T11:20:00.995Z,24.80
2017-08-05T11:25:04.202Z,24.80
2017-08-05T11:30:07.428Z,24.60
2017-08-05T11:35:10.678Z,23.80
2017-08-05T11:40:13.864Z,23.90
2017-08-05T11:45:17.081Z,23.90
2017-08-05T11:50:20.653Z,24.10
2017-08-05T11:55:23.994Z,24.50
2017-08-05T12:00:27.943Z,25.00
2017-08-05T12:05:31.134Z,25.00
2017-08-05T12:10:34.340Z,25.20
2017-08-05T12:15:37.534Z,25.80
2017-08-05T12:20:40.727Z,25.60
2017-08-05T12:25:44.698Z,25.40
2017-08-05T12:30:47.886Z,25.40
2017-08-05T12:35:51.069Z,25.70
2017-08-05T12:40:55.033Z,25.60
2017-08-05T12:45:58.587Z,25.60
2017-08-05T12:51:01.874Z,25.40
2017-08-05T12:56:05.060Z,23.80
2017-08-05T13:01:08.250Z,22.10
2017-08-05T13:06:11.428Z,22.20
2017-08-05T13:11:15.413Z,22.50
2017-08-05T13:16:18.594Z,22.50
2017-08-05T13:21:21.768Z,23.30
2017-08-05T13:26:25.740Z,24.00
2017-08-05T13:31:28.985Z,24.00
2017-08-05T13:36:32.190Z,24.30
2017-08-05T13:41:35.384Z,24.40
2017-08-05T13:46:38.585Z,24.30
2017-08-05T13:51:41.774Z,24.40
2017-08-05T13:56:44.970Z,24.70
2017-08-05T14:01:48.205Z,24.80
2017-08-05T14:06:51.394Z,25.00
2017-08-05T14:11:54.606Z,25.20
2017-08-05T14:16:57.797Z,25.20
2017-08-05T14:22:00.984Z,24.60
2017-08-05T14:27:04.163Z,24.60
2017-08-05T14:32:07.334Z,24.60
2017-08-05T14:37:10.539Z,24.80
2017-08-05T14:42:13.753Z,24.70
2017-08-05T14:47:16.961Z,24.90
2017-08-05T14:52:20.255Z,24.80
2017-08-05T14:57:23.454Z,24.80
2017-08-05T15:02:26.634Z,24.70
2017-08-05T15:07:29.849Z,24.70
2017-08-05T15:12:33.035Z,24.60
2017-08-05T15:17:37.017Z,24.50
2017-08-05T15:22:40.329Z,24.50
2017-08-05T15:27:43.593Z,24.30
2017-08-05T15:32:47.550Z,24.20
2017-08-05T15:37:50.740Z,24.10
2017-08-05T15:42:53.918Z,24.10
2017-08-05T15:47:57.888Z,23.90
2017-08-05T15:53:01.281Z,23.90
2017-08-05T15:58:04.593Z,23.90
2017-08-05T16:03:07.805Z,23.90
2017-08-05T16:08:11.051Z,24.00
2017-08-05T16:13:14.304Z,24.00
2017-08-05T16:18:17.853Z,24.20
2017-08-05T16:23:21.031Z,24.50
2017-08-05T16:28:24.294Z,24.20
2017-08-05T16:33:27.462Z,24.30
2017-08-05T16:38:30.657Z,24.10
2017-08-05T16:43:33.879Z,23.60
2017-08-05T16:48:37.078Z,23.40
2017-08-05T16:53:40.273Z,23.10
2017-08-05T16:58:43.474Z,23.10
2017-08-05T17:03:46.668Z,23.00
2017-08-05T17:08:50.630Z,22.70
2017-08-05T17:13:53.827Z,22.70
2017-08-05T17:18:57.015Z,22.60
2017-08-05T17:24:00.222Z,22.60
2017-08-05T17:29:04.315Z,22.40
2017-08-05T17:34:07.475Z,22.50
2017-08-05T17:39:10.613Z,22.50
2017-08-05T17:44:13.934Z,22.60
2017-08-05T17:49:17.127Z,22.60
2017-08-05T17:54:20.306Z,22.70
2017-08-05T17:59:23.490Z,22.70
2017-08-05T18:04:26.683Z,22.50
2017-08-05T18:09:30.632Z,22.30
2017-08-05T18:14:33.831Z,22.30
2017-08-05T18:19:37.026Z,22.20
2017-08-05T18:24:40.972Z,22.00
2017-08-05T18:29:44.272Z,22.00
2017-08-05T18:34:47.439Z,21.90
2017-08-05T18:39:50.752Z,21.80
2017-08-05T18:44:53.933Z,21.60
2017-08-05T18:49:57.147Z,21.40
2017-08-05T18:55:00.658Z,21.30
2017-08-05T19:00:03.834Z,21.10
2017-08-05T19:05:07.046Z,20.90
2017-08-05T19:10:10.221Z,20.90
2017-08-05T19:15:13.422Z,20.70
2017-08-05T19:20:17.394Z,20.50
2017-08-05T19:25:20.598Z,20.50
2017-08-05T19:30:23.774Z,20.40
2017-08-05T19:35:26.971Z,20.40
2017-08-05T19:40:30.922Z,20.00
2017-08-05T19:45:34.141Z,20.00
2017-08-05T19:50:37.308Z,20.00
2017-08-05T19:55:40.613Z,20.00
2017-08-05T20:00:44.568Z,19.90
2017-08-05T20:05:47.836Z,19.90
2017-08-05T20:10:51.039Z,20.00
2017-08-05T20:15:54.278Z,20.00
2017-08-05T20:20:58.218Z,20.20
2017-08-05T20:26:01.449Z,20.20
2017-08-05T20:31:04.754Z,19.90
2017-08-05T20:36:07.932Z,19.70
2017-08-05T20:41:11.154Z,19.70
2017-08-05T20:46:14.339Z,19.80
2017-08-05T20:51:17.537Z,19.90
2017-08-05T20:56:20.762Z,19.80
2017-08-05T21:01:23.970Z,19.80
2017-08-05T21:06:27.177Z,19.60
2017-08-05T21:11:30.350Z,19.50
2017-08-05T21:16:34.301Z,19.20
2017-08-05T21:21:37.591Z,19.20
2017-08-05T21:26:41.541Z,18.30
2017-08-05T21:31:44.718Z,18.20
2017-08-05T21:36:48.699Z,18.10
2017-08-05T21:41:51.905Z,18.10
2017-08-05T21:46:55.106Z,18.30
2017-08-05T21:51:58.297Z,18.20
2017-08-05T21:57:01.576Z,18.20
2017-08-05T22:02:05.530Z,18.00
2017-08-05T22:07:08.674Z,18.00
2017-08-05T22:12:11.854Z,18.00
2017-08-05T22:17:15.057Z,18.00
2017-08-05T22:22:18.220Z,17.90
2017-08-05T22:27:21.422Z,17.80
2017-08-05T22:32:25.373Z,17.30
2017-08-05T22:37:28.655Z,17.20
2017-08-05T22:42:32.605Z,16.80
2017-08-05T22:47:35.777Z,16.70
2017-08-05T22:52:39.717Z,16.60
2017-08-05T22:57:42.917Z,16.60
2017-08-05T23:02:46.868Z,16.60
2017-08-05T23:07:50.053Z,16.50
2017-08-05T23:12:53.999Z,16.40
2017-08-05T23:17:57.239Z,16.40
2017-08-05T23:23:00.426Z,16.30
2017-08-05T23:28:03.608Z,16.30
2017-08-05T23:33:06.829Z,16.10
2017-08-05T23:38:10.022Z,16.00
2017-08-05T23:43:13.218Z,15.80
2017-08-05T23:48:17.146Z,15.60
2017-08-05T23:53:20.351Z,15.60
2017-08-05T23:58:23.689Z,15.70
